sensor_id;sensor_type;location;lat;lon;timestamp;pressure;altitude;pressure_sealevel;temperature;humidity
49216;BME280;45943;53.148;8.204;2024-03-02T00:00:21;100354.84;;;11.25;100.00
49216;BME280;45943;53.148;8.204;2024-03-02T00:02:50;100356.38;;;11.28;100.00
49216;BME280;45943;53.148;8.204;2024-03-02T00:05:20;100349.63;;;11.33;100.00
49216;BME280;45943;53.148;8.204;2024-03-02T00:07:52;100352.72;;;11.29;100.00
49216;BME280;45943;53.148;8.204;2024-03-02T00:10:22;100344.81;;;11.27;100.00
49216;BME280;45943;53.148;8.204;2024-03-02T00:12:54;100344.25;;;11.24;100.00
49216;BME280;45943;53.148;8.204;2024-03-02T00:18:10;100336.75;;;11.17;100.00
49216;BME280;45943;53.148;8.204;2024-03-02T00:20:38;100334.50;;;11.13;100.00
49216;BME280;45943;53.148;8.204;2024-03-02T00:23:06;100336.59;;;11.19;100.00
49216;BME280;45943;53.148;8.204;2024-03-02T00:25:36;100330.25;;;11.20;100.00
49216;BME280;45943;53.148;8.204;2024-03-02T00:28:16;100338.16;;;11.12;100.00
49216;BME280;45943;53.148;8.204;2024-03-02T00:30:51;100337.31;;;11.11;100.00
49216;BME280;45943;53.148;8.204;2024-03-02T00:33:20;100329.09;;;11.03;100.00
49216;BME280;45943;53.148;8.204;2024-03-02T00:35:47;100331.81;;;11.13;100.00
49216;BME280;45943;53.148;8.204;2024-03-02T00:38:15;100326.16;;;11.16;100.00
49216;BME280;45943;53.148;8.204;2024-03-02T00:40:44;100323.16;;;11.09;100.00
49216;BME280;45943;53.148;8.204;2024-03-02T00:43:14;100321.06;;;11.13;100.00
49216;BME280;45943;53.148;8.204;2024-03-02T00:46:04;100323.31;;;11.17;100.00
49216;BME280;45943;53.148;8.204;2024-03-02T00:48:30;100328.53;;;11.09;100.00
49216;BME280;45943;53.148;8.204;2024-03-02T00:50:57;100320.06;;;11.04;100.00
49216;BME280;45943;53.148;8.204;2024-03-02T00:53:23;100321.31;;;11.10;100.00
49216;BME280;45943;53.148;8.204;2024-03-02T00:55:52;100320.63;;;10.98;100.00
49216;BME280;45943;53.148;8.204;2024-03-02T00:58:18;100319.38;;;11.02;100.00
49216;BME280;45943;53.148;8.204;2024-03-02T01:00:44;100317.22;;;10.96;100.00
49216;BME280;45943;53.148;8.204;2024-03-02T01:03:10;100311.56;;;10.89;100.00
49216;BME280;45943;53.148;8.204;2024-03-02T01:05:41;100306.91;;;10.91;100.00
49216;BME280;45943;53.148;8.204;2024-03-02T01:08:08;100314.09;;;10.72;100.00
49216;BME280;45943;53.148;8.204;2024-03-02T01:10:34;100309.28;;;10.75;100.00
49216;BME280;45943;53.148;8.204;2024-03-02T01:13:00;100317.63;;;10.82;100.00
49216;BME280;45943;53.148;8.204;2024-03-02T01:15:27;100307.31;;;10.77;100.00
49216;BME280;45943;53.148;8.204;2024-03-02T01:17:53;100306.16;;;10.80;100.00
49216;BME280;45943;53.148;8.204;2024-03-02T01:20:19;100306.88;;;10.72;100.00
49216;BME280;45943;53.148;8.204;2024-03-02T01:22:45;100305.16;;;10.71;100.00
49216;BME280;45943;53.148;8.204;2024-03-02T01:25:11;100299.09;;;10.69;100.00
49216;BME280;45943;53.148;8.204;2024-03-02T01:27:37;100301.34;;;10.64;100.00
49216;BME280;45943;53.148;8.204;2024-03-02T01:30:03;100309.56;;;10.72;100.00
49216;BME280;45943;53.148;8.204;2024-03-02T01:32:29;100298.66;;;10.64;100.00
49216;BME280;45943;53.148;8.204;2024-03-02T01:34:55;100298.63;;;10.54;100.00
49216;BME280;45943;53.148;8.204;2024-03-02T01:37:21;100295.97;;;10.64;100.00
49216;BME280;45943;53.148;8.204;2024-03-02T01:39:47;100292.16;;;10.67;100.00
49216;BME280;45943;53.148;8.204;2024-03-02T01:42:13;100292.44;;;10.54;100.00
49216;BME280;45943;53.148;8.204;2024-03-02T01:44:40;100292.28;;;10.55;100.00
49216;BME280;45943;53.148;8.204;2024-03-02T01:47:06;100290.59;;;10.54;100.00
49216;BME280;45943;53.148;8.204;2024-03-02T01:49:32;100284.63;;;10.51;100.00
49216;BME280;45943;53.148;8.204;2024-03-02T01:51:59;100281.94;;;10.51;100.00
49216;BME280;45943;53.148;8.204;2024-03-02T01:54:25;100278.56;;;10.49;100.00
49216;BME280;45943;53.148;8.204;2024-03-02T01:56:51;100279.41;;;10.49;100.00
49216;BME280;45943;53.148;8.204;2024-03-02T01:59:17;100280.56;;;10.56;100.00
49216;BME280;45943;53.148;8.204;2024-03-02T02:01:44;100278.53;;;10.39;100.00
49216;BME280;45943;53.148;8.204;2024-03-02T02:04:10;100276.31;;;10.44;100.00
49216;BME280;45943;53.148;8.204;2024-03-02T02:06:36;100272.91;;;10.52;100.00
49216;BME280;45943;53.148;8.204;2024-03-02T02:09:02;100280.41;;;10.48;100.00
49216;BME280;45943;53.148;8.204;2024-03-02T02:11:28;100273.50;;;10.55;100.00
49216;BME280;45943;53.148;8.204;2024-03-02T02:13:54;100270.69;;;10.57;100.00
49216;BME280;45943;53.148;8.204;2024-03-02T02:16:21;100269.97;;;10.45;100.00
49216;BME280;45943;53.148;8.204;2024-03-02T02:18:47;100261.25;;;10.53;100.00
49216;BME280;45943;53.148;8.204;2024-03-02T02:21:13;100253.16;;;10.43;100.00
49216;BME280;45943;53.148;8.204;2024-03-02T02:23:39;100254.84;;;10.34;100.00
49216;BME280;45943;53.148;8.204;2024-03-02T02:26:05;100255.09;;;10.31;100.00
49216;BME280;45943;53.148;8.204;2024-03-02T02:28:31;100242.84;;;10.39;100.00
49216;BME280;45943;53.148;8.204;2024-03-02T02:30:57;100230.97;;;10.41;100.00
49216;BME280;45943;53.148;8.204;2024-03-02T02:33:25;100233.56;;;10.43;100.00
49216;BME280;45943;53.148;8.204;2024-03-02T02:35:51;100235.38;;;10.42;100.00
49216;BME280;45943;53.148;8.204;2024-03-02T02:38:17;100240.31;;;10.47;100.00
49216;BME280;45943;53.148;8.204;2024-03-02T02:40:45;100242.44;;;10.43;100.00
49216;BME280;45943;53.148;8.204;2024-03-02T02:43:11;100239.31;;;10.38;100.00
49216;BME280;45943;53.148;8.204;2024-03-02T02:45:37;100226.03;;;10.37;100.00
49216;BME280;45943;53.148;8.204;2024-03-02T02:48:03;100228.97;;;10.24;100.00
49216;BME280;45943;53.148;8.204;2024-03-02T02:50:30;100229.09;;;10.22;100.00
49216;BME280;45943;53.148;8.204;2024-03-02T02:52:56;100218.25;;;10.24;100.00
49216;BME280;45943;53.148;8.204;2024-03-02T02:55:22;100224.81;;;10.20;100.00
49216;BME280;45943;53.148;8.204;2024-03-02T02:57:48;100216.78;;;10.20;100.00
49216;BME280;45943;53.148;8.204;2024-03-02T03:00:15;100221.44;;;10.18;100.00
49216;BME280;45943;53.148;8.204;2024-03-02T03:02:42;100211.91;;;10.25;100.00
49216;BME280;45943;53.148;8.204;2024-03-02T03:05:09;100217.91;;;10.17;100.00
49216;BME280;45943;53.148;8.204;2024-03-02T03:07:36;100213.09;;;10.11;100.00
49216;BME280;45943;53.148;8.204;2024-03-02T03:10:03;100217.59;;;10.11;100.00
49216;BME280;45943;53.148;8.204;2024-03-02T03:12:30;100212.66;;;10.06;100.00
49216;BME280;45943;53.148;8.204;2024-03-02T03:14:57;100208.44;;;10.03;100.00
49216;BME280;45943;53.148;8.204;2024-03-02T03:17:23;100205.91;;;10.12;100.00
49216;BME280;45943;53.148;8.204;2024-03-02T03:19:49;100186.03;;;10.14;100.00
49216;BME280;45943;53.148;8.204;2024-03-02T03:22:15;100185.72;;;10.07;100.00
49216;BME280;45943;53.148;8.204;2024-03-02T03:24:42;100184.19;;;10.15;100.00
49216;BME280;45943;53.148;8.204;2024-03-02T03:27:08;100187.03;;;10.13;100.00
49216;BME280;45943;53.148;8.204;2024-03-02T03:29:38;100193.63;;;10.09;100.00
49216;BME280;45943;53.148;8.204;2024-03-02T03:32:04;100181.78;;;10.12;100.00
49216;BME280;45943;53.148;8.204;2024-03-02T03:34:32;100187.84;;;10.04;100.00
49216;BME280;45943;53.148;8.204;2024-03-02T03:36:59;100192.09;;;10.16;100.00
49216;BME280;45943;53.148;8.204;2024-03-02T03:39:25;100205.75;;;10.03;100.00
49216;BME280;45943;53.148;8.204;2024-03-02T03:41:51;100202.09;;;10.04;100.00
49216;BME280;45943;53.148;8.204;2024-03-02T03:44:17;100198.31;;;10.17;100.00
49216;BME280;45943;53.148;8.204;2024-03-02T03:46:43;100208.19;;;10.16;100.00
49216;BME280;45943;53.148;8.204;2024-03-02T03:49:09;100204.13;;;10.22;100.00
49216;BME280;45943;53.148;8.204;2024-03-02T03:51:35;100201.94;;;10.06;100.00
49216;BME280;45943;53.148;8.204;2024-03-02T03:54:01;100210.50;;;10.00;100.00
49216;BME280;45943;53.148;8.204;2024-03-02T03:56:27;100211.97;;;10.04;100.00
49216;BME280;45943;53.148;8.204;2024-03-02T03:58:53;100216.03;;;10.08;100.00
49216;BME280;45943;53.148;8.204;2024-03-02T04:01:19;100212.84;;;10.14;100.00
49216;BME280;45943;53.148;8.204;2024-03-02T04:03:45;100212.84;;;10.14;100.00
49216;BME280;45943;53.148;8.204;2024-03-02T04:06:11;100215.53;;;10.14;100.00
49216;BME280;45943;53.148;8.204;2024-03-02T04:08:37;100212.94;;;10.13;100.00
49216;BME280;45943;53.148;8.204;2024-03-02T04:11:03;100214.59;;;9.94;100.00
49216;BME280;45943;53.148;8.204;2024-03-02T04:13:30;100214.34;;;10.07;100.00
49216;BME280;45943;53.148;8.204;2024-03-02T04:15:56;100218.91;;;10.16;100.00
49216;BME280;45943;53.148;8.204;2024-03-02T04:18:22;100214.91;;;10.11;100.00
49216;BME280;45943;53.148;8.204;2024-03-02T04:20:48;100227.75;;;10.07;100.00
49216;BME280;45943;53.148;8.204;2024-03-02T04:23:14;100222.69;;;10.04;100.00
49216;BME280;45943;53.148;8.204;2024-03-02T04:25:40;100225.78;;;10.09;100.00
49216;BME280;45943;53.148;8.204;2024-03-02T04:28:06;100225.91;;;10.07;100.00
49216;BME280;45943;53.148;8.204;2024-03-02T04:30:32;100230.84;;;10.12;100.00
49216;BME280;45943;53.148;8.204;2024-03-02T04:32:58;100232.94;;;9.99;100.00
49216;BME280;45943;53.148;8.204;2024-03-02T04:35:24;100238.63;;;10.05;100.00
49216;BME280;45943;53.148;8.204;2024-03-02T04:37:51;100234.75;;;9.98;100.00
49216;BME280;45943;53.148;8.204;2024-03-02T04:40:17;100239.28;;;9.98;100.00
49216;BME280;45943;53.148;8.204;2024-03-02T04:42:43;100238.56;;;9.96;100.00
49216;BME280;45943;53.148;8.204;2024-03-02T04:45:09;100236.03;;;9.94;100.00
49216;BME280;45943;53.148;8.204;2024-03-02T04:47:35;100242.22;;;9.95;100.00
49216;BME280;45943;53.148;8.204;2024-03-02T04:50:01;100242.81;;;9.98;100.00
49216;BME280;45943;53.148;8.204;2024-03-02T04:52:27;100246.47;;;9.97;100.00
49216;BME280;45943;53.148;8.204;2024-03-02T04:54:53;100237.72;;;9.95;100.00
49216;BME280;45943;53.148;8.204;2024-03-02T04:57:39;100248.69;;;9.92;100.00
49216;BME280;45943;53.148;8.204;2024-03-02T05:00:06;100248.97;;;9.89;100.00
49216;BME280;45943;53.148;8.204;2024-03-02T05:02:32;100245.94;;;10.03;100.00
49216;BME280;45943;53.148;8.204;2024-03-02T05:04:58;100247.63;;;10.04;100.00
49216;BME280;45943;53.148;8.204;2024-03-02T05:07:24;100244.63;;;9.98;100.00
49216;BME280;45943;53.148;8.204;2024-03-02T05:09:50;100243.25;;;10.03;100.00
49216;BME280;45943;53.148;8.204;2024-03-02T05:12:16;100249.00;;;9.99;100.00
49216;BME280;45943;53.148;8.204;2024-03-02T05:15:01;100249.84;;;9.99;100.00
49216;BME280;45943;53.148;8.204;2024-03-02T05:17:27;100245.75;;;9.95;100.00
49216;BME280;45943;53.148;8.204;2024-03-02T05:19:53;100252.34;;;9.91;100.00
49216;BME280;45943;53.148;8.204;2024-03-02T05:22:19;100257.56;;;9.93;100.00
49216;BME280;45943;53.148;8.204;2024-03-02T05:24:45;100251.78;;;9.88;100.00
49216;BME280;45943;53.148;8.204;2024-03-02T05:27:11;100251.91;;;9.86;100.00
49216;BME280;45943;53.148;8.204;2024-03-02T05:29:37;100260.66;;;9.88;100.00
49216;BME280;45943;53.148;8.204;2024-03-02T05:32:03;100250.66;;;9.90;100.00
49216;BME280;45943;53.148;8.204;2024-03-02T05:34:29;100258.69;;;9.90;100.00
49216;BME280;45943;53.148;8.204;2024-03-02T05:36:56;100255.72;;;9.84;100.00
49216;BME280;45943;53.148;8.204;2024-03-02T05:39:23;100247.28;;;9.88;100.00
49216;BME280;45943;53.148;8.204;2024-03-02T05:41:49;100264.19;;;9.89;100.00
49216;BME280;45943;53.148;8.204;2024-03-02T05:44:15;100258.06;;;9.77;100.00
49216;BME280;45943;53.148;8.204;2024-03-02T05:46:41;100261.47;;;9.79;100.00
49216;BME280;45943;53.148;8.204;2024-03-02T05:49:08;100255.25;;;9.78;100.00
49216;BME280;45943;53.148;8.204;2024-03-02T05:51:35;100255.59;;;9.85;100.00
49216;BME280;45943;53.148;8.204;2024-03-02T05:54:01;100250.09;;;9.87;100.00
49216;BME280;45943;53.148;8.204;2024-03-02T05:56:28;100262.03;;;9.83;100.00
49216;BME280;45943;53.148;8.204;2024-03-02T05:58:54;100261.13;;;9.72;100.00
49216;BME280;45943;53.148;8.204;2024-03-02T06:01:41;100264.84;;;9.81;100.00
49216;BME280;45943;53.148;8.204;2024-03-02T06:04:09;100263.00;;;9.82;100.00
49216;BME280;45943;53.148;8.204;2024-03-02T06:06:36;100259.56;;;9.70;100.00
49216;BME280;45943;53.148;8.204;2024-03-02T06:09:03;100259.44;;;9.71;100.00
49216;BME280;45943;53.148;8.204;2024-03-02T06:11:36;100269.50;;;9.79;100.00
49216;BME280;45943;53.148;8.204;2024-03-02T06:14:03;100257.41;;;9.85;100.00
49216;BME280;45943;53.148;8.204;2024-03-02T06:16:29;100265.41;;;9.75;100.00
49216;BME280;45943;53.148;8.204;2024-03-02T06:18:56;100276.13;;;9.75;100.00
49216;BME280;45943;53.148;8.204;2024-03-02T06:21:26;100276.41;;;9.82;100.00
49216;BME280;45943;53.148;8.204;2024-03-02T06:23:53;100279.69;;;9.85;100.00
49216;BME280;45943;53.148;8.204;2024-03-02T06:26:19;100277.44;;;9.90;100.00
49216;BME280;45943;53.148;8.204;2024-03-02T06:28:45;100286.75;;;9.86;100.00
49216;BME280;45943;53.148;8.204;2024-03-02T06:31:11;100286.13;;;9.83;100.00
49216;BME280;45943;53.148;8.204;2024-03-02T06:33:37;100285.22;;;9.72;100.00
49216;BME280;45943;53.148;8.204;2024-03-02T06:36:04;100294.31;;;9.81;100.00
49216;BME280;45943;53.148;8.204;2024-03-02T06:38:30;100294.72;;;9.76;100.00
49216;BME280;45943;53.148;8.204;2024-03-02T06:40:57;100295.72;;;9.75;100.00
49216;BME280;45943;53.148;8.204;2024-03-02T06:43:23;100296.69;;;9.74;100.00
49216;BME280;45943;53.148;8.204;2024-03-02T06:45:50;100309.03;;;9.87;100.00
49216;BME280;45943;53.148;8.204;2024-03-02T06:48:16;100307.19;;;9.87;100.00
49216;BME280;45943;53.148;8.204;2024-03-02T06:50:46;100313.97;;;9.91;100.00
49216;BME280;45943;53.148;8.204;2024-03-02T06:53:13;100317.34;;;9.84;100.00
49216;BME280;45943;53.148;8.204;2024-03-02T06:55:39;100316.53;;;9.72;100.00
49216;BME280;45943;53.148;8.204;2024-03-02T06:58:05;100317.13;;;9.75;100.00
49216;BME280;45943;53.148;8.204;2024-03-02T07:00:31;100316.34;;;9.85;100.00
49216;BME280;45943;53.148;8.204;2024-03-02T07:02:57;100324.25;;;9.86;100.00
49216;BME280;45943;53.148;8.204;2024-03-02T07:05:24;100322.41;;;9.87;100.00
49216;BME280;45943;53.148;8.204;2024-03-02T07:07:50;100320.00;;;9.84;100.00
49216;BME280;45943;53.148;8.204;2024-03-02T07:10:15;100320.44;;;9.89;100.00
49216;BME280;45943;53.148;8.204;2024-03-02T07:12:41;100323.59;;;9.94;100.00
49216;BME280;45943;53.148;8.204;2024-03-02T07:15:08;100323.84;;;9.91;100.00
49216;BME280;45943;53.148;8.204;2024-03-02T07:17:44;100326.72;;;9.99;100.00
49216;BME280;45943;53.148;8.204;2024-03-02T07:20:10;100330.31;;;9.88;100.00
49216;BME280;45943;53.148;8.204;2024-03-02T07:22:37;100329.06;;;9.92;100.00
49216;BME280;45943;53.148;8.204;2024-03-02T07:25:04;100331.31;;;9.87;100.00
49216;BME280;45943;53.148;8.204;2024-03-02T07:27:32;100318.41;;;9.81;100.00
49216;BME280;45943;53.148;8.204;2024-03-02T07:29:59;100319.53;;;9.99;100.00
49216;BME280;45943;53.148;8.204;2024-03-02T07:32:25;100322.56;;;9.85;100.00
49216;BME280;45943;53.148;8.204;2024-03-02T07:34:51;100325.88;;;9.98;100.00
49216;BME280;45943;53.148;8.204;2024-03-02T07:37:17;100340.69;;;10.02;100.00
49216;BME280;45943;53.148;8.204;2024-03-02T07:39:44;100326.38;;;9.92;100.00
49216;BME280;45943;53.148;8.204;2024-03-02T07:42:10;100324.03;;;9.99;100.00
49216;BME280;45943;53.148;8.204;2024-03-02T07:44:36;100330.69;;;10.04;100.00
49216;BME280;45943;53.148;8.204;2024-03-02T07:47:03;100330.44;;;10.07;100.00
49216;BME280;45943;53.148;8.204;2024-03-02T07:49:29;100339.66;;;10.15;100.00
49216;BME280;45943;53.148;8.204;2024-03-02T07:51:55;100345.31;;;10.21;100.00
49216;BME280;45943;53.148;8.204;2024-03-02T07:54:21;100351.44;;;10.23;100.00
49216;BME280;45943;53.148;8.204;2024-03-02T07:56:47;100351.59;;;10.31;100.00
49216;BME280;45943;53.148;8.204;2024-03-02T07:59:13;100358.13;;;10.39;100.00
49216;BME280;45943;53.148;8.204;2024-03-02T08:01:39;100363.66;;;10.47;100.00
49216;BME280;45943;53.148;8.204;2024-03-02T08:04:05;100362.25;;;10.43;100.00
49216;BME280;45943;53.148;8.204;2024-03-02T08:06:32;100360.75;;;10.59;100.00
49216;BME280;45943;53.148;8.204;2024-03-02T08:08:58;100358.31;;;10.87;100.00
49216;BME280;45943;53.148;8.204;2024-03-02T08:11:26;100365.84;;;11.03;100.00
49216;BME280;45943;53.148;8.204;2024-03-02T08:13:56;100365.00;;;11.02;100.00
49216;BME280;45943;53.148;8.204;2024-03-02T08:16:22;100371.34;;;11.11;100.00
49216;BME280;45943;53.148;8.204;2024-03-02T08:18:49;100372.22;;;11.21;100.00
49216;BME280;45943;53.148;8.204;2024-03-02T08:21:15;100371.81;;;11.26;100.00
49216;BME280;45943;53.148;8.204;2024-03-02T08:23:42;100378.47;;;11.31;100.00
49216;BME280;45943;53.148;8.204;2024-03-02T08:26:09;100376.72;;;11.30;100.00
49216;BME280;45943;53.148;8.204;2024-03-02T08:28:35;100371.13;;;11.43;100.00
49216;BME280;45943;53.148;8.204;2024-03-02T08:31:06;100378.19;;;11.54;100.00
49216;BME280;45943;53.148;8.204;2024-03-02T08:33:33;100385.25;;;11.64;100.00
49216;BME280;45943;53.148;8.204;2024-03-02T08:35:59;100379.88;;;11.74;100.00
49216;BME280;45943;53.148;8.204;2024-03-02T08:38:25;100379.34;;;11.80;100.00
49216;BME280;45943;53.148;8.204;2024-03-02T08:40:51;100368.00;;;11.86;100.00
49216;BME280;45943;53.148;8.204;2024-03-02T08:43:17;100371.81;;;12.03;100.00
49216;BME280;45943;53.148;8.204;2024-03-02T08:45:43;100383.25;;;12.05;100.00
49216;BME280;45943;53.148;8.204;2024-03-02T08:48:10;100375.72;;;12.18;100.00
49216;BME280;45943;53.148;8.204;2024-03-02T08:50:36;100377.84;;;12.24;100.00
49216;BME280;45943;53.148;8.204;2024-03-02T08:53:05;100368.56;;;12.46;100.00
49216;BME280;45943;53.148;8.204;2024-03-02T08:55:31;100391.50;;;12.50;100.00
49216;BME280;45943;53.148;8.204;2024-03-02T08:57:57;100396.59;;;12.53;100.00
49216;BME280;45943;53.148;8.204;2024-03-02T09:00:23;100394.41;;;12.67;100.00
49216;BME280;45943;53.148;8.204;2024-03-02T09:02:50;100389.13;;;12.75;96.32
49216;BME280;45943;53.148;8.204;2024-03-02T09:05:16;100395.69;;;13.00;95.19
49216;BME280;45943;53.148;8.204;2024-03-02T09:07:42;100392.78;;;13.11;91.72
49216;BME280;45943;53.148;8.204;2024-03-02T09:10:08;100397.84;;;13.24;91.06
49216;BME280;45943;53.148;8.204;2024-03-02T09:12:35;100402.38;;;13.23;87.41
49216;BME280;45943;53.148;8.204;2024-03-02T09:15:01;100407.44;;;13.26;86.60
49216;BME280;45943;53.148;8.204;2024-03-02T09:17:29;100408.31;;;13.17;86.45
49216;BME280;45943;53.148;8.204;2024-03-02T09:19:55;100406.22;;;13.20;85.58
49216;BME280;45943;53.148;8.204;2024-03-02T09:22:21;100409.53;;;13.32;85.79
49216;BME280;45943;53.148;8.204;2024-03-02T09:24:48;100412.78;;;13.36;84.42
49216;BME280;45943;53.148;8.204;2024-03-02T09:27:14;100422.22;;;13.22;83.74
49216;BME280;45943;53.148;8.204;2024-03-02T09:29:41;100406.59;;;13.26;83.76
49216;BME280;45943;53.148;8.204;2024-03-02T09:32:07;100401.50;;;13.50;83.67
49216;BME280;45943;53.148;8.204;2024-03-02T09:34:34;100410.44;;;13.68;82.37
49216;BME280;45943;53.148;8.204;2024-03-02T09:37:00;100404.72;;;13.89;83.56
49216;BME280;45943;53.148;8.204;2024-03-02T09:39:25;100408.63;;;13.95;78.71
49216;BME280;45943;53.148;8.204;2024-03-02T09:41:52;100415.50;;;14.07;79.17
49216;BME280;45943;53.148;8.204;2024-03-02T09:44:19;100409.94;;;13.91;77.09
49216;BME280;45943;53.148;8.204;2024-03-02T09:46:48;100419.50;;;13.85;77.85
49216;BME280;45943;53.148;8.204;2024-03-02T09:49:15;100411.72;;;14.00;78.23
49216;BME280;45943;53.148;8.204;2024-03-02T09:51:41;100413.47;;;14.09;77.29
49216;BME280;45943;53.148;8.204;2024-03-02T09:54:12;100401.47;;;14.29;76.23
49216;BME280;45943;53.148;8.204;2024-03-02T09:56:38;100397.09;;;14.46;74.58
49216;BME280;45943;53.148;8.204;2024-03-02T09:59:05;100394.50;;;14.71;73.16
49216;BME280;45943;53.148;8.204;2024-03-02T10:01:31;100400.28;;;14.76;71.95
49216;BME280;45943;53.148;8.204;2024-03-02T10:04:00;100398.13;;;14.87;70.08
49216;BME280;45943;53.148;8.204;2024-03-02T10:06:28;100390.38;;;14.92;68.36
49216;BME280;45943;53.148;8.204;2024-03-02T10:08:54;100399.50;;;14.91;68.19
49216;BME280;45943;53.148;8.204;2024-03-02T10:14:06;100398.25;;;15.20;66.65
49216;BME280;45943;53.148;8.204;2024-03-02T10:16:36;100395.56;;;15.28;64.78
49216;BME280;45943;53.148;8.204;2024-03-02T10:21:48;100403.00;;;15.26;64.29
49216;BME280;45943;53.148;8.204;2024-03-02T10:24:15;100406.72;;;15.33;64.21
49216;BME280;45943;53.148;8.204;2024-03-02T10:26:42;100401.16;;;15.43;63.08
49216;BME280;45943;53.148;8.204;2024-03-02T10:29:09;100403.06;;;15.50;63.22
49216;BME280;45943;53.148;8.204;2024-03-02T10:31:38;100393.16;;;15.67;62.03
49216;BME280;45943;53.148;8.204;2024-03-02T10:34:06;100398.63;;;15.41;61.57
49216;BME280;45943;53.148;8.204;2024-03-02T10:36:33;100404.22;;;15.48;61.48
49216;BME280;45943;53.148;8.204;2024-03-02T10:39:03;100402.88;;;15.44;61.22
49216;BME280;45943;53.148;8.204;2024-03-02T10:41:33;100401.25;;;15.67;61.15
49216;BME280;45943;53.148;8.204;2024-03-02T10:44:10;100389.75;;;15.82;60.45
49216;BME280;45943;53.148;8.204;2024-03-02T10:46:36;100393.31;;;16.06;60.56
49216;BME280;45943;53.148;8.204;2024-03-02T10:49:04;100400.44;;;16.08;59.75
49216;BME280;45943;53.148;8.204;2024-03-02T10:51:31;100391.81;;;15.88;58.75
49216;BME280;45943;53.148;8.204;2024-03-02T10:53:58;100389.59;;;15.91;58.99
49216;BME280;45943;53.148;8.204;2024-03-02T10:56:32;100389.44;;;16.09;59.07
49216;BME280;45943;53.148;8.204;2024-03-02T10:59:11;100390.09;;;16.19;58.18
49216;BME280;45943;53.148;8.204;2024-03-02T11:01:47;100380.63;;;16.15;58.08
49216;BME280;45943;53.148;8.204;2024-03-02T11:04:17;100382.63;;;16.38;57.40
49216;BME280;45943;53.148;8.204;2024-03-02T11:06:46;100373.94;;;16.58;57.28
49216;BME280;45943;53.148;8.204;2024-03-02T11:09:14;100371.59;;;16.72;56.27
49216;BME280;45943;53.148;8.204;2024-03-02T11:11:43;100370.56;;;16.56;56.16
49216;BME280;45943;53.148;8.204;2024-03-02T11:14:10;100376.94;;;16.80;56.31
49216;BME280;45943;53.148;8.204;2024-03-02T11:16:39;100383.63;;;17.00;56.24
49216;BME280;45943;53.148;8.204;2024-03-02T11:19:13;100387.19;;;17.01;54.42
49216;BME280;45943;53.148;8.204;2024-03-02T11:21:40;100393.41;;;16.70;54.34
49216;BME280;45943;53.148;8.204;2024-03-02T11:26:53;100396.63;;;16.49;55.11
49216;BME280;45943;53.148;8.204;2024-03-02T11:32:01;100382.72;;;16.60;54.78
49216;BME280;45943;53.148;8.204;2024-03-02T11:34:31;100381.00;;;16.84;54.63
49216;BME280;45943;53.148;8.204;2024-03-02T11:36:59;100382.09;;;17.06;54.57
49216;BME280;45943;53.148;8.204;2024-03-02T11:39:29;100390.00;;;17.15;53.80
49216;BME280;45943;53.148;8.204;2024-03-02T11:41:56;100401.38;;;17.11;54.28
49216;BME280;45943;53.148;8.204;2024-03-02T11:44:26;100393.56;;;17.16;53.69
49216;BME280;45943;53.148;8.204;2024-03-02T11:46:59;100383.03;;;17.21;53.42
49216;BME280;45943;53.148;8.204;2024-03-02T11:52:14;100396.03;;;17.57;53.08
49216;BME280;45943;53.148;8.204;2024-03-02T11:54:43;100390.03;;;17.92;52.56
49216;BME280;45943;53.148;8.204;2024-03-02T11:57:13;100382.38;;;17.96;52.02
49216;BME280;45943;53.148;8.204;2024-03-02T11:59:41;100382.75;;;17.70;52.01
49216;BME280;45943;53.148;8.204;2024-03-02T12:02:12;100384.94;;;17.66;52.55
49216;BME280;45943;53.148;8.204;2024-03-02T12:04:41;100389.28;;;17.53;52.36
49216;BME280;45943;53.148;8.204;2024-03-02T12:07:09;100383.22;;;17.51;52.81
49216;BME280;45943;53.148;8.204;2024-03-02T12:09:35;100368.97;;;17.48;52.37
49216;BME280;45943;53.148;8.204;2024-03-02T12:12:05;100372.34;;;17.51;52.76
49216;BME280;45943;53.148;8.204;2024-03-02T12:14:32;100375.03;;;17.82;52.74
49216;BME280;45943;53.148;8.204;2024-03-02T12:16:59;100378.88;;;17.87;51.95
49216;BME280;45943;53.148;8.204;2024-03-02T12:19:26;100382.22;;;17.74;52.00
49216;BME280;45943;53.148;8.204;2024-03-02T12:21:53;100367.31;;;17.93;51.45
49216;BME280;45943;53.148;8.204;2024-03-02T12:24:20;100373.84;;;17.99;51.67
49216;BME280;45943;53.148;8.204;2024-03-02T12:26:48;100368.41;;;18.22;50.90
49216;BME280;45943;53.148;8.204;2024-03-02T12:29:16;100373.00;;;18.21;50.55
49216;BME280;45943;53.148;8.204;2024-03-02T12:31:44;100381.56;;;17.72;50.88
49216;BME280;45943;53.148;8.204;2024-03-02T12:34:13;100379.47;;;17.97;51.01
49216;BME280;45943;53.148;8.204;2024-03-02T12:36:39;100378.16;;;17.93;51.04
49216;BME280;45943;53.148;8.204;2024-03-02T12:39:07;100369.44;;;18.21;50.74
49216;BME280;45943;53.148;8.204;2024-03-02T12:41:37;100366.28;;;18.09;50.48
49216;BME280;45943;53.148;8.204;2024-03-02T12:44:06;100379.41;;;18.05;50.53
49216;BME280;45943;53.148;8.204;2024-03-02T12:46:32;100372.47;;;18.03;50.24
49216;BME280;45943;53.148;8.204;2024-03-02T12:48:58;100362.34;;;17.97;50.08
49216;BME280;45943;53.148;8.204;2024-03-02T12:51:30;100373.84;;;17.99;50.25
49216;BME280;45943;53.148;8.204;2024-03-02T12:53:57;100365.44;;;17.94;49.81
49216;BME280;45943;53.148;8.204;2024-03-02T12:56:24;100355.09;;;18.12;49.87
49216;BME280;45943;53.148;8.204;2024-03-02T12:58:54;100358.53;;;18.06;50.06
49216;BME280;45943;53.148;8.204;2024-03-02T13:01:20;100354.34;;;18.18;49.61